createdAt,value
2023-02-23T00:00:33.563Z,6.65
2023-02-23T00:01:33.409Z,6.71
2023-02-23T00:02:33.574Z,6.76
2023-02-23T00:03:33.415Z,6.80
2023-02-23T00:04:35.442Z,6.80
2023-02-23T00:05:33.381Z,6.79
2023-02-23T00:06:54.522Z,6.76
2023-02-23T00:07:33.328Z,6.74
2023-02-23T00:08:33.409Z,6.75
2023-02-23T00:09:33.300Z,6.75
2023-02-23T00:10:33.517Z,6.78
2023-02-23T00:11:33.270Z,6.81
2023-02-23T00:12:33.380Z,6.84
2023-02-23T00:13:33.250Z,6.84
2023-02-23T00:14:33.313Z,6.86
2023-02-23T00:15:33.221Z,6.90
2023-02-23T00:16:33.327Z,6.90
2023-02-23T00:17:33.190Z,6.89
2023-02-23T00:18:33.279Z,6.85
2023-02-23T00:19:33.183Z,6.85
2023-02-23T00:20:33.319Z,6.85
2023-02-23T00:21:33.151Z,6.88
2023-02-23T00:22:34.340Z,6.89
2023-02-23T00:23:33.108Z,6.92
2023-02-23T00:24:33.188Z,6.93
2023-02-23T00:25:33.088Z,6.94
2023-02-23T00:26:33.219Z,6.97
2023-02-23T00:27:33.057Z,7.00
2023-02-23T00:28:35.155Z,7.00
2023-02-23T00:29:33.038Z,7.01
2023-02-23T00:30:33.245Z,7.01
2023-02-23T00:31:33.220Z,6.99
2023-02-23T00:32:33.131Z,7.00
2023-02-23T00:33:32.992Z,7.05
2023-02-23T00:34:35.062Z,7.12
2023-02-23T00:35:32.960Z,7.20
2023-02-23T00:36:33.103Z,7.23
2023-02-23T00:37:32.932Z,7.27
2023-02-23T00:38:33.035Z,7.29
2023-02-23T00:39:32.909Z,7.30
2023-02-23T00:40:33.052Z,7.31
2023-02-23T00:41:32.876Z,7.35
2023-02-23T00:42:32.902Z,7.41
2023-02-23T00:43:32.852Z,7.45
2023-02-23T00:44:32.945Z,7.47
2023-02-23T00:45:32.814Z,7.48
2023-02-23T00:46:32.944Z,7.48
2023-02-23T00:47:32.794Z,7.45
2023-02-23T00:48:32.953Z,7.39
2023-02-23T00:49:32.772Z,7.34
2023-02-23T00:50:32.855Z,7.28
2023-02-23T00:51:32.752Z,7.23
2023-02-23T00:52:33.864Z,7.20
2023-02-23T00:53:32.724Z,7.16
2023-02-23T00:54:32.775Z,7.17
2023-02-23T00:55:32.706Z,7.22
2023-02-23T00:56:32.795Z,7.26
2023-02-23T00:57:32.665Z,7.30
2023-02-23T00:58:32.853Z,7.35
2023-02-23T00:59:32.688Z,7.41
2023-02-23T01:00:32.755Z,7.45
2023-02-23T01:01:32.660Z,7.45
2023-02-23T01:02:33.677Z,7.45
2023-02-23T01:03:32.582Z,7.45
2023-02-23T01:04:32.749Z,7.44
2023-02-23T01:05:32.544Z,7.42
2023-02-23T01:06:32.734Z,7.39
2023-02-23T01:07:32.532Z,7.36
2023-02-23T01:08:32.568Z,7.33
2023-02-23T01:09:32.507Z,7.31
2023-02-23T01:10:32.528Z,7.33
2023-02-23T01:11:32.469Z,7.34
2023-02-23T01:12:32.537Z,7.36
2023-02-23T01:13:32.445Z,7.37
2023-02-23T01:15:41.773Z,6.87
2023-02-23T01:16:41.643Z,6.87
2023-02-23T01:17:41.781Z,7.10
2023-02-23T01:18:41.610Z,7.21
2023-02-23T01:19:41.710Z,7.29
2023-02-23T01:20:42.460Z,7.35
2023-02-23T01:21:41.738Z,7.41
2023-02-23T01:22:41.559Z,7.44
2023-02-23T01:24:03.693Z,7.46
2023-02-23T01:24:41.531Z,7.46
2023-02-23T01:25:41.619Z,7.47
2023-02-23T01:26:41.503Z,7.50
2023-02-23T01:27:41.628Z,7.52
2023-02-23T01:28:41.500Z,7.51
2023-02-23T01:29:41.525Z,7.49
2023-02-23T01:30:41.534Z,7.45
2023-02-23T01:31:41.681Z,7.41
2023-02-23T01:32:41.419Z,7.38
2023-02-23T01:33:41.508Z,7.37
2023-02-23T01:34:41.397Z,7.36
2023-02-23T01:35:43.490Z,7.36
2023-02-23T01:36:41.368Z,7.35
2023-02-23T01:37:41.430Z,7.34
2023-02-23T01:38:41.346Z,7.31
2023-02-23T01:39:41.520Z,7.26
2023-02-23T01:40:41.329Z,7.25
2023-02-23T01:41:41.500Z,7.25
2023-02-23T01:42:41.307Z,7.25
2023-02-23T01:43:42.370Z,7.23
2023-02-23T01:44:41.275Z,7.22
2023-02-23T01:45:41.507Z,7.23
2023-02-23T01:46:41.230Z,7.24
2023-02-23T01:47:41.469Z,7.26
2023-02-23T01:48:41.341Z,7.27
2023-02-23T01:49:41.487Z,7.28
2023-02-23T01:50:41.297Z,7.28
2023-02-23T01:51:41.244Z,7.30
2023-02-23T01:52:41.158Z,7.33
2023-02-23T01:53:41.212Z,7.37
2023-02-23T01:54:41.138Z,7.40
2023-02-23T01:55:41.247Z,7.40
2023-02-23T01:56:41.098Z,7.40
2023-02-23T01:57:41.237Z,7.39
2023-02-23T01:58:41.098Z,7.36
2023-02-23T01:59:42.252Z,7.34
2023-02-23T02:00:41.047Z,7.32
2023-02-23T02:01:41.217Z,7.30
2023-02-23T02:02:41.019Z,7.27
2023-02-23T02:03:41.139Z,7.24
2023-02-23T02:04:41.021Z,7.21
2023-02-23T02:05:41.125Z,7.19
2023-02-23T02:06:40.980Z,7.17
2023-02-23T02:07:41.080Z,7.15
2023-02-23T02:08:40.945Z,7.15
2023-02-23T02:09:41.147Z,7.16
2023-02-23T02:10:40.964Z,7.17
2023-02-23T02:12:02.926Z,7.19
2023-02-23T02:12:40.913Z,7.19
2023-02-23T02:13:40.976Z,7.19
2023-02-23T02:14:40.861Z,7.16
2023-02-23T02:15:40.974Z,7.14
2023-02-23T02:16:40.834Z,7.12
2023-02-23T02:17:43.042Z,7.11
2023-02-23T02:18:40.856Z,7.09
2023-02-23T02:19:40.876Z,7.08
2023-02-23T02:20:40.826Z,7.06
2023-02-23T02:21:40.856Z,7.02
2023-02-23T02:22:40.783Z,7.00
2023-02-23T02:23:40.847Z,6.99
2023-02-23T02:24:40.784Z,7.01
2023-02-23T02:25:40.881Z,7.01
2023-02-23T02:26:40.696Z,6.98
2023-02-23T02:27:40.865Z,6.98
2023-02-23T02:28:40.676Z,6.98
2023-02-23T02:29:40.746Z,6.99
2023-02-23T02:30:40.680Z,7.01
2023-02-23T02:31:40.885Z,7.02
2023-02-23T02:32:40.616Z,7.04
2023-02-23T02:33:40.766Z,7.05
2023-02-23T02:34:40.596Z,7.03
2023-02-23T02:35:42.751Z,7.01
2023-02-23T02:36:40.573Z,6.99
2023-02-23T02:37:40.585Z,6.96
2023-02-23T02:38:40.551Z,6.94
2023-02-23T02:39:45.894Z,6.92
2023-02-23T02:40:40.542Z,6.91
2023-02-23T02:41:41.590Z,6.90
2023-02-23T02:42:40.485Z,6.87
2023-02-23T02:43:40.601Z,6.86
2023-02-23T02:44:40.495Z,6.85
2023-02-23T02:45:41.608Z,6.83
2023-02-23T02:46:40.448Z,6.82
2023-02-23T02:47:40.466Z,6.82
2023-02-23T02:48:40.410Z,6.83
2023-02-23T02:49:40.501Z,6.82
2023-02-23T02:50:40.377Z,6.82
2023-02-23T02:51:41.444Z,6.81
2023-02-23T02:52:40.346Z,6.82
2023-02-23T02:53:40.469Z,6.82
2023-02-23T02:54:40.330Z,6.84
2023-02-23T02:55:40.508Z,6.84
2023-02-23T02:56:40.519Z,6.83
2023-02-23T02:57:44.590Z,6.83
2023-02-23T02:58:40.279Z,6.81
2023-02-23T02:59:40.390Z,6.80
2023-02-23T03:00:40.247Z,6.78
2023-02-23T03:01:40.389Z,6.77
2023-02-23T03:02:40.280Z,6.78
2023-02-23T03:03:43.570Z,6.78
2023-02-23T03:04:40.188Z,6.78
2023-02-23T03:05:40.287Z,6.80
2023-02-23T03:06:40.169Z,6.80
2023-02-23T03:07:41.248Z,6.80
2023-02-23T03:08:40.144Z,6.81
2023-02-23T03:09:41.231Z,6.84
2023-02-23T03:10:40.127Z,6.88
2023-02-23T03:11:40.289Z,6.91
2023-02-23T03:12:40.089Z,6.92
2023-02-23T03:13:40.230Z,6.92
2023-02-23T03:14:40.078Z,6.92
2023-02-23T03:15:40.117Z,6.93
2023-02-23T03:16:40.044Z,6.93
2023-02-23T03:17:40.119Z,6.92
2023-02-23T03:18:40.021Z,6.92
2023-02-23T03:19:40.148Z,6.92
2023-02-23T03:20:39.981Z,6.93
2023-02-23T03:21:40.119Z,6.95
2023-02-23T03:22:39.974Z,6.95
2023-02-23T03:23:40.111Z,6.95
2023-02-23T03:24:39.928Z,6.96
2023-02-23T03:25:42.130Z,6.95
2023-02-23T03:26:39.898Z,6.93
2023-02-23T03:27:40.035Z,6.92
2023-02-23T03:28:39.884Z,6.92
2023-02-23T03:29:40.032Z,6.94
2023-02-23T03:30:39.858Z,6.94
2023-02-23T03:31:40.164Z,6.95
2023-02-23T03:32:39.893Z,6.98
2023-02-23T03:33:39.937Z,6.98
2023-02-23T03:34:39.809Z,7.01
2023-02-23T03:35:39.946Z,7.04
2023-02-23T03:36:39.778Z,7.06
2023-02-23T03:37:39.861Z,7.05
2023-02-23T03:38:39.747Z,7.02
2023-02-23T03:39:39.947Z,7.02
2023-02-23T03:40:39.719Z,7.02
2023-02-23T03:41:39.835Z,7.01
2023-02-23T03:42:39.697Z,7.02
2023-02-23T03:43:41.858Z,7.03
2023-02-23T03:44:39.673Z,7.02
2023-02-23T03:45:39.845Z,7.01
2023-02-23T03:46:39.638Z,7.00
2023-02-23T03:47:39.791Z,6.99
2023-02-23T03:48:39.613Z,7.00
2023-02-23T03:49:39.774Z,7.02
2023-02-23T03:50:39.587Z,7.03
2023-02-23T03:51:39.666Z,7.04
2023-02-23T03:52:39.559Z,7.04
2023-02-23T03:54:00.625Z,7.03
2023-02-23T03:54:39.528Z,7.02
2023-02-23T03:56:02.656Z,7.02
2023-02-23T03:56:39.507Z,7.00
2023-02-23T03:57:39.647Z,7.00
2023-02-23T03:58:39.487Z,7.00
2023-02-23T03:59:39.642Z,7.00
2023-02-23T04:00:39.462Z,6.97
2023-02-23T04:01:39.515Z,6.96
2023-02-23T04:02:39.419Z,6.95
2023-02-23T04:03:39.606Z,6.93
2023-02-23T04:04:39.422Z,6.92
2023-02-23T04:05:39.543Z,6.91
2023-02-23T04:06:39.364Z,6.92
2023-02-23T04:07:39.510Z,6.93
2023-02-23T04:08:39.341Z,6.93
2023-02-23T04:09:39.568Z,6.95
2023-02-23T04:10:39.324Z,6.96
2023-02-23T04:11:41.440Z,6.97
2023-02-23T04:12:39.284Z,6.98
2023-02-23T04:13:40.367Z,6.99
2023-02-23T04:14:39.278Z,7.00
2023-02-23T04:15:39.366Z,6.99
2023-02-23T04:16:39.282Z,6.98
2023-02-23T04:17:39.368Z,6.98
2023-02-23T04:18:39.216Z,6.96
2023-02-23T04:19:39.282Z,6.97
2023-02-23T04:20:39.206Z,6.97
2023-02-23T04:21:39.277Z,6.97
2023-02-23T04:22:39.154Z,6.98
2023-02-23T04:23:39.261Z,6.98
2023-02-23T04:24:39.125Z,7.01
2023-02-23T04:25:40.218Z,7.03
2023-02-23T04:26:39.091Z,7.05
2023-02-23T04:27:39.281Z,7.08
2023-02-23T04:28:39.072Z,7.12
2023-02-23T04:29:40.194Z,7.13
2023-02-23T04:30:39.084Z,7.14
2023-02-23T04:31:39.158Z,7.13
2023-02-23T04:32:39.102Z,7.11
2023-02-23T04:33:39.182Z,7.09
2023-02-23T04:34:39.018Z,7.08
2023-02-23T04:35:39.197Z,7.07
2023-02-23T04:36:38.964Z,7.07
2023-02-23T04:37:39.114Z,7.07
2023-02-23T04:38:38.944Z,7.06
2023-02-23T04:39:38.994Z,7.07
2023-02-23T04:40:38.925Z,7.10
2023-02-23T04:41:38.977Z,7.13
2023-02-23T04:42:38.897Z,7.15
2023-02-23T04:43:38.954Z,7.16
2023-02-23T04:44:38.863Z,7.16
2023-02-23T04:45:39.052Z,7.13
2023-02-23T04:46:38.843Z,7.08
2023-02-23T04:47:38.885Z,7.05
2023-02-23T04:48:38.820Z,7.04
2023-02-23T04:49:40.915Z,7.05
2023-02-23T04:50:38.808Z,7.04
2023-02-23T04:51:38.904Z,7.03
2023-02-23T04:52:38.763Z,7.03
2023-02-23T04:53:38.894Z,7.05
2023-02-23T04:54:38.732Z,7.05
2023-02-23T04:55:39.855Z,7.05
2023-02-23T04:56:38.696Z,7.03
2023-02-23T04:57:38.830Z,7.02
2023-02-23T04:58:38.674Z,7.01
2023-02-23T04:59:38.802Z,7.01
2023-02-23T05:00:38.656Z,7.00
2023-02-23T05:01:38.788Z,7.01
2023-02-23T05:02:38.623Z,7.00
2023-02-23T05:03:38.834Z,6.99
2023-02-23T05:04:38.628Z,6.98
2023-02-23T05:05:39.630Z,6.98
2023-02-23T05:06:38.574Z,6.98
2023-02-23T05:07:38.643Z,6.98
2023-02-23T05:08:38.545Z,6.99
2023-02-23T05:09:39.352Z,6.98
2023-02-23T05:10:40.230Z,6.97
2023-02-23T05:11:39.659Z,6.96
2023-02-23T05:12:38.485Z,6.96
2023-02-23T05:13:38.659Z,6.96
2023-02-23T05:14:38.465Z,6.96
2023-02-23T05:15:38.749Z,6.94
2023-02-23T05:16:38.443Z,6.96
2023-02-23T05:17:38.515Z,6.96
2023-02-23T05:18:38.416Z,6.96
2023-02-23T05:19:38.556Z,6.95
2023-02-23T05:20:38.385Z,6.95
2023-02-23T05:21:38.556Z,6.95
2023-02-23T05:22:38.367Z,6.94
2023-02-23T05:23:38.529Z,6.93
2023-02-23T05:24:38.332Z,6.92
2023-02-23T05:25:38.461Z,6.90
2023-02-23T05:26:38.304Z,6.87
2023-02-23T05:27:38.407Z,6.86
2023-02-23T05:28:38.283Z,6.85
2023-02-23T05:29:38.424Z,6.85
2023-02-23T05:30:38.314Z,6.84
2023-02-23T05:31:38.521Z,6.81
2023-02-23T05:32:38.222Z,6.78
2023-02-23T05:33:38.374Z,6.77
2023-02-23T05:34:38.200Z,6.75
2023-02-23T05:35:38.222Z,6.74
2023-02-23T05:36:38.173Z,6.73
2023-02-23T05:37:38.270Z,6.76
2023-02-23T05:38:38.143Z,6.79
2023-02-23T05:39:38.250Z,6.83
2023-02-23T05:40:38.110Z,6.89
2023-02-23T05:41:39.262Z,6.91
2023-02-23T05:42:38.089Z,6.93
2023-02-23T05:43:59.253Z,6.91
2023-02-23T05:44:38.058Z,6.91
2023-02-23T05:45:40.168Z,6.88
2023-02-23T05:46:38.102Z,6.85
2023-02-23T05:47:38.169Z,6.81
2023-02-23T05:48:38.034Z,6.78
2023-02-23T05:49:38.181Z,6.75
2023-02-23T05:50:37.968Z,6.74
2023-02-23T05:51:38.159Z,6.74
2023-02-23T05:52:37.978Z,6.76
2023-02-23T05:53:38.168Z,6.78
2023-02-23T05:54:37.922Z,6.81
2023-02-23T05:55:37.980Z,6.85
2023-02-23T05:56:37.907Z,6.87
2023-02-23T05:57:38.000Z,6.89
2023-02-23T05:58:37.879Z,6.88
2023-02-23T05:59:38.063Z,6.87
2023-02-23T06:00:37.850Z,6.83
2023-02-23T06:01:37.888Z,6.77
2023-02-23T06:02:37.893Z,6.73
2023-02-23T06:03:38.061Z,6.70
2023-02-23T06:04:37.809Z,6.69
2023-02-23T06:05:37.863Z,6.69
2023-02-23T06:06:37.778Z,6.69
2023-02-23T06:07:37.897Z,6.69
2023-02-23T06:08:37.739Z,6.70
2023-02-23T06:09:37.885Z,6.71
2023-02-23T06:10:37.726Z,6.72
2023-02-23T06:11:37.870Z,6.72
2023-02-23T06:12:37.700Z,6.74
2023-02-23T06:13:37.822Z,6.77
2023-02-23T06:14:37.668Z,6.79
2023-02-23T06:15:37.826Z,6.80
2023-02-23T06:16:37.789Z,6.80
2023-02-23T06:17:37.781Z,6.80
2023-02-23T06:18:37.623Z,6.83
2023-02-23T06:19:37.730Z,6.87
2023-02-23T06:20:40.171Z,6.90
2023-02-23T06:21:39.640Z,6.91
2023-02-23T06:22:37.549Z,6.92
2023-02-23T06:23:37.678Z,6.92
2023-02-23T06:24:37.540Z,6.93
2023-02-23T06:25:37.611Z,6.93
2023-02-23T06:26:37.505Z,6.90
2023-02-23T06:27:38.628Z,6.88
2023-02-23T06:28:37.488Z,6.88
2023-02-23T06:29:38.508Z,6.89
2023-02-23T06:30:37.457Z,6.89
2023-02-23T06:31:37.614Z,6.87
2023-02-23T06:32:37.516Z,6.86
2023-02-23T06:33:37.512Z,6.86
2023-02-23T06:34:37.389Z,6.84
2023-02-23T06:35:37.489Z,6.84
2023-02-23T06:36:37.388Z,6.84
2023-02-23T06:37:37.532Z,6.85
2023-02-23T06:38:37.347Z,6.85
2023-02-23T06:39:37.418Z,6.86
2023-02-23T06:40:37.322Z,6.88
2023-02-23T06:41:37.398Z,6.89
2023-02-23T06:42:37.297Z,6.90
2023-02-23T06:43:38.457Z,6.91
2023-02-23T06:44:37.267Z,6.90
2023-02-23T06:45:37.421Z,6.90
2023-02-23T06:46:37.261Z,6.91
2023-02-23T06:47:37.297Z,6.92
2023-02-23T06:48:37.212Z,6.94
2023-02-23T06:49:37.339Z,6.96
2023-02-23T06:50:37.188Z,6.96
2023-02-23T06:51:39.278Z,6.98
2023-02-23T06:52:37.158Z,6.97
2023-02-23T06:53:37.338Z,6.98
2023-02-23T06:54:37.127Z,7.00
2023-02-23T06:55:37.247Z,7.02
2023-02-23T06:56:37.126Z,7.05
2023-02-23T06:57:37.228Z,7.06
2023-02-23T06:58:37.077Z,7.09
2023-02-23T06:59:37.208Z,7.10
2023-02-23T07:00:37.057Z,7.08
2023-02-23T07:01:37.172Z,7.08
2023-02-23T07:02:37.019Z,7.08
2023-02-23T07:03:37.182Z,7.10
2023-02-23T07:04:36.995Z,7.11
2023-02-23T07:05:37.015Z,7.12
2023-02-23T07:06:36.965Z,7.13
2023-02-23T07:07:37.047Z,7.14
2023-02-23T07:08:36.943Z,7.14
2023-02-23T07:09:37.040Z,7.14
2023-02-23T07:10:36.913Z,7.15
2023-02-23T07:11:37.036Z,7.17
2023-02-23T07:12:36.881Z,7.20
2023-02-23T07:13:37.054Z,7.22
2023-02-23T07:14:36.866Z,7.26
2023-02-23T07:15:36.950Z,7.28
2023-02-23T07:16:36.875Z,7.27
2023-02-23T07:17:38.011Z,7.27
2023-02-23T07:18:36.804Z,7.28
2023-02-23T07:19:36.976Z,7.31
2023-02-23T07:20:36.780Z,7.33
2023-02-23T07:21:36.950Z,7.36
2023-02-23T07:22:38.134Z,7.41
2023-02-23T07:23:36.964Z,7.44
2023-02-23T07:24:36.719Z,7.46
2023-02-23T07:25:37.799Z,7.48
2023-02-23T07:26:36.739Z,7.50
2023-02-23T07:27:36.850Z,7.53
2023-02-23T07:28:36.693Z,7.54
2023-02-23T07:29:36.769Z,7.57
2023-02-23T07:30:36.647Z,7.59
2023-02-23T07:31:36.910Z,7.59
2023-02-23T07:32:36.723Z,7.60
2023-02-23T07:33:36.661Z,7.60
2023-02-23T07:34:36.589Z,7.62
2023-02-23T07:35:36.631Z,7.64
2023-02-23T07:36:36.572Z,7.67
2023-02-23T07:37:59.766Z,7.71
2023-02-23T07:38:36.541Z,7.74
2023-02-23T07:39:36.550Z,7.77
2023-02-23T07:40:36.590Z,7.80
2023-02-23T07:41:36.568Z,7.85
2023-02-23T07:42:36.623Z,7.90
2023-02-23T07:43:36.474Z,7.92
2023-02-23T07:44:36.794Z,7.95
2023-02-23T07:45:36.499Z,7.97
2023-02-23T07:46:36.594Z,7.98
2023-02-23T07:47:36.415Z,8.00
2023-02-23T07:48:36.526Z,8.03
2023-02-23T07:49:36.394Z,8.07
2023-02-23T07:50:36.455Z,8.10
2023-02-23T07:51:36.396Z,8.11
2023-02-23T07:52:36.507Z,8.11
2023-02-23T07:53:36.342Z,8.13
2023-02-23T07:54:36.539Z,8.16
2023-02-23T07:55:36.318Z,8.19
2023-02-23T07:56:36.365Z,8.21
2023-02-23T07:57:36.309Z,8.20
2023-02-23T07:58:36.419Z,8.21
2023-02-23T07:59:36.264Z,8.23
2023-02-23T08:00:36.337Z,8.26
2023-02-23T08:01:36.243Z,8.30
2023-02-23T08:02:36.386Z,8.34
2023-02-23T08:03:36.219Z,8.35
2023-02-23T08:04:36.360Z,8.38
2023-02-23T08:05:36.177Z,8.41
2023-02-23T08:06:36.246Z,8.44
2023-02-23T08:07:36.155Z,8.45
2023-02-23T08:08:36.283Z,8.47
2023-02-23T08:09:36.176Z,8.50
2023-02-23T08:10:36.215Z,8.54
2023-02-23T08:11:36.095Z,8.56
2023-02-23T08:12:38.256Z,8.58
2023-02-23T08:13:36.066Z,8.61
2023-02-23T08:14:36.297Z,8.64
2023-02-23T08:15:36.057Z,8.69
2023-02-23T08:16:38.232Z,8.76
2023-02-23T08:17:36.044Z,8.83
2023-02-23T08:18:36.237Z,8.88
2023-02-23T08:19:35.994Z,8.92
2023-02-23T08:20:36.098Z,8.93
2023-02-23T08:21:35.988Z,8.93
2023-02-23T08:22:48.862Z,8.94
2023-02-23T08:23:36.938Z,8.95
2023-02-23T08:24:36.006Z,8.98
2023-02-23T08:25:35.894Z,9.03
2023-02-23T08:26:36.018Z,9.06
2023-02-23T08:27:35.904Z,9.09
2023-02-23T08:28:35.982Z,9.12
2023-02-23T08:29:35.851Z,9.15
2023-02-23T08:30:36.050Z,9.20
2023-02-23T08:31:36.063Z,9.23
2023-02-23T08:32:36.046Z,9.23
2023-02-23T08:33:35.813Z,9.23
2023-02-23T08:34:35.845Z,9.25
2023-02-23T08:35:35.774Z,9.27
2023-02-23T08:36:35.847Z,9.27
2023-02-23T08:37:35.754Z,9.29
2023-02-23T08:38:35.916Z,9.30
2023-02-23T08:39:35.748Z,9.31
2023-02-23T08:40:35.844Z,9.32
2023-02-23T08:41:35.706Z,9.32
2023-02-23T08:42:35.775Z,9.35
2023-02-23T08:43:35.689Z,9.39
2023-02-23T08:44:35.713Z,9.43
2023-02-23T08:45:35.902Z,9.49
2023-02-23T08:46:35.751Z,9.52
2023-02-23T08:47:35.621Z,9.58
2023-02-23T08:48:35.789Z,9.66
2023-02-23T08:49:35.586Z,9.71
2023-02-23T08:50:35.729Z,9.75
2023-02-23T08:51:35.641Z,9.79
2023-02-23T08:52:56.772Z,9.83
2023-02-23T08:53:35.548Z,9.90
2023-02-23T08:54:35.599Z,9.98
2023-02-23T08:55:35.521Z,10.06
2023-02-23T08:56:35.850Z,10.14
2023-02-23T08:57:35.506Z,10.17
2023-02-23T08:58:35.577Z,10.18
2023-02-23T08:59:35.458Z,10.17
2023-02-23T09:00:35.599Z,10.19
2023-02-23T09:01:35.493Z,10.22
2023-02-23T09:02:35.529Z,10.24
2023-02-23T09:03:37.679Z,10.26
2023-02-23T09:04:35.457Z,10.24
2023-02-23T09:05:35.421Z,10.19
2023-02-23T09:06:35.502Z,10.14
2023-02-23T09:07:35.339Z,10.12
2023-02-23T09:08:35.669Z,10.13
2023-02-23T09:09:35.341Z,10.20
2023-02-23T09:10:36.499Z,10.26
2023-02-23T09:11:35.288Z,10.33
2023-02-23T09:12:35.389Z,10.38
2023-02-23T09:13:35.276Z,10.40
2023-02-23T09:14:37.444Z,10.44
2023-02-23T09:15:35.305Z,10.48
2023-02-23T09:16:35.378Z,10.53
2023-02-23T09:17:35.225Z,10.55
2023-02-23T09:18:35.417Z,10.54
2023-02-23T09:19:35.188Z,10.54
2023-02-23T09:20:35.247Z,10.56
2023-02-23T09:21:35.183Z,10.60
2023-02-23T09:22:36.858Z,10.63
2023-02-23T09:23:35.138Z,10.68
2023-02-23T09:24:35.222Z,10.75
2023-02-23T09:25:35.125Z,10.80
2023-02-23T09:26:35.257Z,10.87
2023-02-23T09:27:35.098Z,10.97
2023-02-23T09:28:36.222Z,11.00
2023-02-23T09:29:35.059Z,10.98
2023-02-23T09:30:35.149Z,10.94
2023-02-23T09:31:35.151Z,10.90
2023-02-23T09:32:35.238Z,10.82
2023-02-23T09:33:35.029Z,10.78
2023-02-23T09:34:37.345Z,10.74
2023-02-23T09:35:35.139Z,10.73
2023-02-23T09:36:35.137Z,10.69
2023-02-23T09:37:34.947Z,10.65
2023-02-23T09:38:35.976Z,10.64
2023-02-23T09:39:38.654Z,10.66
2023-02-23T09:40:34.919Z,10.69
2023-02-23T09:41:37.088Z,10.74
2023-02-23T09:42:34.868Z,10.80
2023-02-23T09:43:35.018Z,10.87
2023-02-23T09:44:34.859Z,10.94
2023-02-23T09:45:35.055Z,10.97
2023-02-23T09:46:34.834Z,10.99
2023-02-23T09:47:34.969Z,11.00
2023-02-23T09:48:34.801Z,11.00
2023-02-23T09:49:35.938Z,11.04
2023-02-23T09:50:34.772Z,11.10
2023-02-23T09:51:35.009Z,11.16
2023-02-23T09:52:34.923Z,11.24
2023-02-23T09:53:34.785Z,11.30
2023-02-23T09:54:34.744Z,11.32
2023-02-23T09:55:34.829Z,11.38
2023-02-23T09:56:34.695Z,11.45
2023-02-23T09:57:34.811Z,11.53
2023-02-23T09:58:34.684Z,11.56
2023-02-23T09:59:34.796Z,11.58
2023-02-23T10:00:34.642Z,11.62
2023-02-23T10:01:34.746Z,11.67
2023-02-23T10:02:34.627Z,11.69
2023-02-23T10:03:34.726Z,11.69
2023-02-23T10:04:34.627Z,11.66
2023-02-23T10:05:34.696Z,11.63
2023-02-23T10:06:34.564Z,11.63
2023-02-23T10:07:34.736Z,11.68
2023-02-23T10:08:34.542Z,11.73
2023-02-23T10:09:34.713Z,11.79
2023-02-23T10:10:34.578Z,11.85
2023-02-23T10:11:36.908Z,11.93
2023-02-23T10:12:34.501Z,11.99
2023-02-23T10:13:34.541Z,12.05
2023-02-23T10:14:34.453Z,12.11
2023-02-23T10:15:34.652Z,12.15
2023-02-23T10:16:34.440Z,12.18
2023-02-23T10:17:34.612Z,12.19
2023-02-23T10:18:46.124Z,12.17
2023-02-23T10:19:35.385Z,12.10
2023-02-23T10:20:34.440Z,12.01
2023-02-23T10:21:34.374Z,11.95
2023-02-23T10:22:34.444Z,11.92
2023-02-23T10:23:34.350Z,11.90
2023-02-23T10:24:35.410Z,11.90
2023-02-23T10:25:34.302Z,11.89
2023-02-23T10:26:34.413Z,11.85
2023-02-23T10:27:34.307Z,11.85
2023-02-23T10:28:34.374Z,11.89
2023-02-23T10:29:34.272Z,11.95
2023-02-23T10:30:34.428Z,11.99
2023-02-23T10:31:34.525Z,12.04
2023-02-23T10:32:34.449Z,12.10
2023-02-23T10:33:34.227Z,12.16
2023-02-23T10:34:34.267Z,12.22
2023-02-23T10:35:34.183Z,12.27
2023-02-23T10:36:34.297Z,12.31
2023-02-23T10:37:34.148Z,12.31
2023-02-23T10:38:34.233Z,12.31
2023-02-23T10:39:34.143Z,12.31
2023-02-23T10:40:34.306Z,12.31
2023-02-23T10:41:34.094Z,12.33
2023-02-23T10:42:34.201Z,12.34
2023-02-23T10:43:34.081Z,12.35
2023-02-23T10:44:34.139Z,12.30
2023-02-23T10:45:34.055Z,12.26
2023-02-23T10:46:34.264Z,12.25
2023-02-23T10:47:34.044Z,12.23
2023-02-23T10:48:34.122Z,12.23
2023-02-23T10:49:34.036Z,12.23
2023-02-23T10:50:34.153Z,12.24
2023-02-23T10:51:33.992Z,12.23
2023-02-23T10:52:34.133Z,12.24
2023-02-23T10:53:33.947Z,12.27
2023-02-23T10:54:34.019Z,12.30
2023-02-23T10:55:33.908Z,12.36
2023-02-23T10:56:34.045Z,12.44
2023-02-23T10:57:33.904Z,12.52
2023-02-23T10:58:34.026Z,12.61
2023-02-23T10:59:33.882Z,12.70
2023-02-23T11:00:54.950Z,12.77
2023-02-23T11:01:33.885Z,12.86
2023-02-23T11:02:34.107Z,12.94
2023-02-23T11:03:33.809Z,13.00
2023-02-23T11:04:33.983Z,13.05
2023-02-23T11:05:33.835Z,13.09
2023-02-23T11:06:34.013Z,13.16
2023-02-23T11:07:33.767Z,13.24
2023-02-23T11:08:33.764Z,13.30
2023-02-23T11:09:45.834Z,13.32
2023-02-23T11:10:34.702Z,13.35
2023-02-23T11:11:33.852Z,13.37
2023-02-23T11:12:33.672Z,13.43
2023-02-23T11:13:34.874Z,13.52
2023-02-23T11:14:33.679Z,13.60
2023-02-23T11:15:54.457Z,13.67
2023-02-23T11:16:34.701Z,13.72
2023-02-23T11:17:33.663Z,13.75
2023-02-23T11:18:33.590Z,13.78
2023-02-23T11:19:33.695Z,13.81
2023-02-23T11:20:33.553Z,13.84
2023-02-23T11:21:33.797Z,13.85
2023-02-23T11:22:33.585Z,13.85
2023-02-23T11:23:33.747Z,13.88
2023-02-23T11:24:33.516Z,13.89
2023-02-23T11:25:33.602Z,13.89
2023-02-23T11:26:33.525Z,13.86
2023-02-23T11:27:33.675Z,13.82
2023-02-23T11:28:33.546Z,13.81
2023-02-23T11:29:33.586Z,13.82
2023-02-23T11:30:33.447Z,13.84
2023-02-23T11:31:33.657Z,13.87
2023-02-23T11:32:33.514Z,13.89
2023-02-23T11:33:33.521Z,13.91
2023-02-23T11:34:33.368Z,13.92
2023-02-23T11:35:35.488Z,13.85
2023-02-23T11:36:33.351Z,13.79
2023-02-23T11:37:33.410Z,13.72
2023-02-23T11:38:33.326Z,13.66
2023-02-23T11:39:33.500Z,13.64
2023-02-23T11:40:33.328Z,13.66
2023-02-23T11:41:35.528Z,13.69
2023-02-23T11:42:33.342Z,13.70
2023-02-23T11:43:33.322Z,13.72
2023-02-23T11:44:33.779Z,13.77
2023-02-23T11:45:34.353Z,13.85
2023-02-23T11:46:33.290Z,13.93
2023-02-23T11:47:33.290Z,13.99
2023-02-23T11:48:33.179Z,14.06
2023-02-23T11:49:33.330Z,14.13
2023-02-23T11:50:33.182Z,14.21
2023-02-23T11:51:34.348Z,14.27
2023-02-23T11:52:33.128Z,14.30
2023-02-23T11:53:33.199Z,14.27
2023-02-23T11:54:33.946Z,14.26
2023-02-23T11:55:34.367Z,14.29
2023-02-23T11:56:34.110Z,14.29
2023-02-23T11:57:43.810Z,14.32
2023-02-23T11:58:36.230Z,14.31
2023-02-23T11:59:34.624Z,14.33
2023-02-23T12:00:33.098Z,14.36
2023-02-23T12:01:33.461Z,14.34
2023-02-23T12:02:33.005Z,14.34
2023-02-23T12:03:39.972Z,14.38
2023-02-23T12:04:35.233Z,14.44
2023-02-23T12:05:35.879Z,14.52
2023-02-23T12:06:37.880Z,14.60
2023-02-23T12:07:39.003Z,14.69
2023-02-23T12:08:37.556Z,14.79
2023-02-23T12:09:38.853Z,14.86
2023-02-23T12:10:36.277Z,14.81
2023-02-23T12:11:34.971Z,14.78
2023-02-23T12:12:33.791Z,14.77
2023-02-23T12:13:33.882Z,14.79
2023-02-23T12:14:35.395Z,14.81
2023-02-23T12:15:35.469Z,14.82
2023-02-23T12:16:42.052Z,14.80
2023-02-23T12:17:37.071Z,14.81
2023-02-23T12:18:32.910Z,14.82
2023-02-23T12:19:37.146Z,14.86
2023-02-23T12:20:37.891Z,14.92
2023-02-23T12:21:33.570Z,15.02
2023-02-23T12:22:40.222Z,15.10
2023-02-23T12:23:32.702Z,15.19
2023-02-23T12:24:32.837Z,15.30
2023-02-23T12:25:32.689Z,15.43
2023-02-23T12:26:32.824Z,15.53
2023-02-23T12:27:32.660Z,15.60
2023-02-23T12:28:33.908Z,15.59
2023-02-23T12:29:32.627Z,15.54
2023-02-23T12:30:32.867Z,15.51
2023-02-23T12:31:32.672Z,15.51
2023-02-23T12:32:32.792Z,15.50
2023-02-23T12:33:32.587Z,15.49
2023-02-23T12:34:32.698Z,15.53
2023-02-23T12:35:32.559Z,15.59
2023-02-23T12:36:32.650Z,15.68
2023-02-23T12:37:32.525Z,15.78
2023-02-23T12:38:32.726Z,15.88
2023-02-23T12:39:32.509Z,15.98
2023-02-23T12:40:32.621Z,16.03
2023-02-23T12:41:32.466Z,16.02
2023-02-23T12:42:32.536Z,15.94
2023-02-23T12:43:32.434Z,15.84
2023-02-23T12:44:35.794Z,15.73
2023-02-23T12:45:32.408Z,15.64
2023-02-23T12:46:32.532Z,15.60
2023-02-23T12:47:32.367Z,15.60
2023-02-23T12:48:32.544Z,15.62
2023-02-23T12:49:32.361Z,15.64
2023-02-23T12:50:32.435Z,15.63
2023-02-23T12:51:32.336Z,15.58
2023-02-23T12:52:32.422Z,15.50
2023-02-23T12:53:32.313Z,15.42
2023-02-23T12:54:32.454Z,15.31
2023-02-23T12:55:32.273Z,15.21
2023-02-23T12:56:32.577Z,15.13
2023-02-23T12:57:32.486Z,15.07
2023-02-23T12:58:32.886Z,15.03
2023-02-23T12:59:33.081Z,15.03
2023-02-23T13:00:32.263Z,15.07
2023-02-23T13:01:32.214Z,15.13
2023-02-23T13:02:34.623Z,15.21
2023-02-23T13:03:32.592Z,15.29
2023-02-23T13:04:32.436Z,15.36
2023-02-23T13:05:32.138Z,15.42
2023-02-23T13:06:32.274Z,15.50
2023-02-23T13:07:32.119Z,15.57
2023-02-23T13:08:32.156Z,15.64
2023-02-23T13:09:32.097Z,15.67
2023-02-23T13:10:32.141Z,15.72